• Join FlightAware (Why Join?)
  • Login
  • US Flag 
01:45PM EDT


 

Airport Tracker/Info


-or-


 

Live Flight TrackerFlight Track Log ✈ SWA1725 ✈ 09-Apr-2013 ✈ KSMF - KMDW

Flight Track Log - Related Links

Times and Time Zones

All times are in EDT time to prevent confusion due to time zone crossing. See the SWA1725 flight status page for this flight to view local times or setup timezone preferences in your user account.

Time Position Orientation Groundspeed Altitude Reporting Facility
EDT Latitude Longitude Course Direction KTS MPH feet Rate Location/Type
05:09PM 38.7258 -121.5994 72° East 141 162 1,400  Level Oakland Center
05:10PM 38.7333 -121.5275 82° East 280 322 4,100 2,700 Climbing Oakland Center
05:11PM 38.7294 -121.4392 93° East 256 295 6,900 3,120 Climbing Oakland Center
05:12PM 38.7253 -121.3464 93° East 256 295 10,500 2,520 Climbing Oakland Center
05:13PM 38.7225 -121.2383 92° East 297 342 12,100 1,920 Climbing Oakland Center
05:14PM 38.7172 -121.1117 93° East 342 394 14,500 2,400 Climbing Oakland Center
05:15PM 38.9123 -120.7064 72° East  Level Estimated
05:15PM 38.7122 -120.9778 93° East 366 421 17,100  Level Oakland Center
05:16PM 38.7072 -120.8364 93° East 390 449 19,200 2,280 Climbing Oakland Center
05:18PM 38.7019 -120.6900 93° East 408 470 21,800 2,280 Climbing Oakland Center
05:19PM 38.6956 -120.5408 93° East 417 480 23,900 1,980 Climbing Oakland Center
05:20PM 38.6897 -120.3878 93° East 427 491 25,900 1,800 Climbing Oakland Center
05:21PM 38.6828 -120.2322 93° East 437 503 27,600 1,500 Climbing Oakland Center
05:22PM 38.6944 -120.0797 84° East 432 497 29,000 1,200 Climbing Oakland Center
05:23PM 38.7089 -119.9219 83° East 444 511 30,100 1,560 Climbing Oakland Center
05:24PM 38.6956 -119.7322 95° East 464 534 32,200 1,800 Climbing Oakland Center
05:25PM 38.6831 -119.5708 96° East 459 528 33,800 1,440 Climbing Oakland Center
05:26PM 38.6714 -119.4133 95° East 450 518 35,200 1,200 Climbing Oakland Center
05:27PM 38.6619 -119.2558 94° East 448 516 36,300 780 Climbing Oakland Center
05:28PM 38.6503 -119.0989 95° East 446 513 36,900 300 Climbing Oakland Center
05:29PM 38.6381 -118.9372 95° East 454 522 37,000  Climbing Oakland Center
05:30PM 38.6258 -118.7769 96° East 457 526 37,000  Level Oakland Center
05:31PM 38.6122 -118.6175 96° East 455 524 37,000  Level Oakland Center
05:32PM 38.6008 -118.4578 95° East 455 524 37,000  Level Oakland Center
05:33PM 38.5850 -118.2631 96° East 461 531 37,000  Level Oakland Center
05:34PM 38.5714 -118.1008 96° East 461 531 37,000  Level Oakland Center
05:35PM 38.5794 -117.9392 86° East 442 509 37,000  Level Oakland Center
05:36PM 38.6036 -117.7908 78° East 426 490 37,000  Level Oakland Center
05:37PM 38.6258 -117.6400 79° East 429 494 37,000  Level Oakland Center
05:38PM 38.6497 -117.4881 79° East 432 497 37,000  Level Oakland Center
05:39PM 38.6733 -117.3358 79° East 434 499 37,000  Level Oakland Center
05:40PM 38.6961 -117.1864 79° East 427 491 37,000  Level Oakland Center
05:41PM 38.7181 -117.0369 79° East 426 490 37,000  Level Oakland Center
05:42PM 38.7414 -116.8858 79° East 430 495 37,000  Level Oakland Center
05:43PM 38.7625 -116.7319 80° East 436 502 37,000  Level Oakland Center
05:44PM 38.7858 -116.5808 79° East 431 496 37,000  Level Oakland Center
05:45PM 38.8072 -116.4300 80° East 430 495 37,000  Level Oakland Center
05:46PM 38.8283 -116.2794 80° East 428 493 37,000  Level Oakland Center
05:47PM 38.8500 -116.1286 80° East 429 494 37,000  Level Oakland Center
05:48PM 38.8742 -115.9489 80° East 428 493 37,000  Level Salt Lake Center
05:49PM 38.8953 -115.7994 80° East 426 490 37,000  Level Salt Lake Center
05:50PM 38.9158 -115.6497 80° East 426 490 37,000  Level Salt Lake Center
05:51PM 38.9358 -115.5006 80° East 423 487 37,000  Level Salt Lake Center
05:52PM 38.9564 -115.3467 80° East 427 491 37,000  Level Salt Lake Center
05:53PM 38.9778 -115.1953 80° East 431 496 37,000  Level Salt Lake Center
05:54PM 38.9983 -115.0411 80° East 436 502 37,000  Level Salt Lake Center
05:55PM 39.0222 -114.8567 80° East 437 503 37,000  Level Salt Lake Center
05:56PM 39.0422 -114.7022 80° East 439 505 37,000  Level Salt Lake Center
05:57PM 39.0619 -114.5450 81° East 443 510 37,000  Level Salt Lake Center
05:58PM 39.0817 -114.3894 81° East 441 507 37,000  Level Salt Lake Center
05:59PM 39.1019 -114.2303 81° East 447 514 37,000  Level Salt Lake Center
06:00PM 39.1222 -114.0719 81° East 449 517 37,000  Level Salt Lake Center
06:02PM 39.1403 -113.9142 82° East 447 514 37,000  Level Salt Lake Center
06:03PM 39.1597 -113.7575 81° East 445 512 37,000  Level Salt Lake Center
06:04PM 39.1825 -113.5703 81° East 442 509 37,000  Level Salt Lake Center
06:05PM 39.2006 -113.4136 81° East 442 509 37,000  Level Salt Lake Center
06:06PM 39.2183 -113.2564 82° East 444 511 37,000  Level Salt Lake Center
06:07PM 39.2372 -113.1000 81° East 442 509 37,000  Level Salt Lake Center
06:08PM 39.2547 -112.9417 82° East 446 513 37,000  Level Salt Lake Center
06:09PM 39.2719 -112.7825 82° East 448 516 37,000  Level Salt Lake Center
06:10PM 39.2917 -112.6050 82° East 449 517 37,000  Level Salt Lake Center
06:11PM 39.3125 -112.4500 80° East 444 511 37,000  Level Salt Lake Center
06:12PM 39.3433 -112.2975 75° East 441 507 37,000  Level Salt Lake Center
06:13PM 39.3714 -112.1425 77° East 443 510 37,000  Level Salt Lake Center
06:14PM 39.4003 -111.9867 76° East 448 516 37,000  Level Salt Lake Center
06:15PM 39.4286 -111.8306 77° East 449 517 37,000  Level Salt Lake Center
06:16PM 39.4631 -111.6403 77° East 453 521 37,000  Level Salt Lake Center
06:17PM 39.4914 -111.4814 77° East 456 525 37,000  Level Salt Lake Center
06:18PM 39.5203 -111.3233 77° East 455 524 37,000  Level Salt Lake Center
06:19PM 39.5472 -111.1686 77° East 453 521 37,000  Level Salt Lake Center
06:20PM 39.5783 -110.9919 77° East 452 520 37,000  Level Salt Lake Center
06:21PM 39.6050 -110.8403 77° East 452 520 37,000  Level Salt Lake Center
06:22PM 39.6308 -110.6878 78° East 451 519 37,000  Level Salt Lake Center
06:23PM 39.6597 -110.5114 78° East 450 518 37,000  Level Salt Lake Center
06:24PM 39.6861 -110.3603 77° East 449 517 37,000  Level Salt Lake Center
06:25PM 39.7164 -110.1844 77° East 448 516 37,000  Level Salt Lake Center
06:26PM 39.7408 -110.0333 78° East 447 514 37,000  Level Salt Lake Center
06:27PM 39.7647 -109.8822 78° East 445 512 37,000  Level Salt Lake Center
06:28PM 39.7956 -109.7047 77° East 449 517 37,000  Level Salt Lake Center
06:29PM 39.8269 -109.5814 72° East 445 512 37,000  Level Denver Center
06:30PM 39.8711 -109.4089 72° East 447 514 37,000  Level Denver Center
06:31PM 39.9083 -109.2622 72° East 445 512 37,000  Level Denver Center
06:32PM 39.9447 -109.1144 72° East 445 512 37,000  Level Denver Center
06:33PM 39.9944 -108.9203 71° East 444 511 37,000  Level Salt Lake Center
06:34PM 40.0258 -108.7944 72° East 448 516 37,000  Level Denver Center
06:35PM 40.0653 -108.6458 71° East 449 517 37,000  Level Denver Center
06:36PM 40.1278 -108.4822 63° Northeast 449 517 37,000  Level Denver Center
06:37PM 40.1792 -108.3406 65° Northeast 449 517 37,000  Level Denver Center
06:38PM 40.2411 -108.1739 64° Northeast 453 521 37,000  Level Denver Center
06:39PM 40.2933 -108.0319 64° Northeast 452 520 37,000  Level Denver Center
06:40PM 40.3533 -107.8672 64° Northeast 448 516 37,000  Level Denver Center
06:41PM 40.4056 -107.7233 64° Northeast 454 522 37,000  Level Denver Center
06:42PM 40.4569 -107.5811 65° Northeast 452 520 37,000  Level Denver Center
06:43PM 40.5161 -107.4139 65° Northeast 452 520 37,000  Level Denver Center
06:44PM 40.5667 -107.2711 65° Northeast 451 519 37,000  Level Denver Center
06:45PM 40.6267 -107.1061 64° Northeast 451 519 37,000  Level Denver Center
06:46PM 40.6811 -106.9525 65° Northeast 457 526 37,000  Level Denver Center
06:48PM 40.7344 -106.8003 65° Northeast 456 525 37,000  Level Denver Center
06:49PM 40.7922 -106.6344 65° Northeast 460 529 37,000  Level Denver Center
06:50PM 40.8417 -106.4883 66° East 457 526 37,000  Level Denver Center
06:51PM 40.9011 -106.3161 65° Northeast 461 531 37,000  Level Denver Center
06:52PM 40.9519 -106.1692 65° Northeast 460 529 37,000  Level Denver Center
06:53PM 41.0075 -106.0019 66° East 463 533 37,000  Level Denver Center
06:54PM 41.0622 -105.8425 65° Northeast 461 531 37,000  Level Denver Center
06:55PM 41.1114 -105.6972 66° East 453 521 37,000  Level Denver Center
06:56PM 41.1689 -105.5228 66° East 460 529 37,000  Level Denver Center
06:57PM 41.2264 -105.3511 66° East 458 527 37,000  Level Denver Center
06:58PM 41.2678 -105.2278 66° East 459 528 37,000  Level Denver Center
06:59PM 41.3325 -105.0311 66° East 455 524 37,000  Level Denver Center
07:00PM 41.3886 -104.8581 67° East 456 525 37,000  Level Denver Center
07:01PM 41.4358 -104.7142 66° East 447 514 37,000  Level Denver Center
07:02PM 41.4833 -104.5675 67° East 449 517 37,000  Level Denver Center
07:03PM 41.5372 -104.3992 67° East 446 513 37,000  Level Denver Center
07:04PM 41.5833 -104.2547 67° East 446 513 37,000  Level Denver Center
07:05PM 41.6369 -104.0881 67° East 440 506 37,000  Level Denver Center
07:06PM 41.6822 -103.9442 67° East 439 505 37,000  Level Denver Center
07:07PM 41.7342 -103.7781 67° East 437 503 37,000  Level Denver Center
07:08PM 41.7792 -103.6336 67° East 439 505 37,000  Level Denver Center
07:09PM 41.8322 -103.4628 67° East 444 511 37,000  Level Denver Center
07:10PM 41.8778 -103.3156 67° East 446 513 37,000  Level Denver Center
07:11PM 41.9228 -103.1672 68° East 448 516 37,000  Level Denver Center
07:12PM 41.9767 -102.9936 67° East 451 519 37,000  Level Denver Center
07:13PM 42.0217 -102.8431 68° East 453 521 37,000  Level Denver Center
07:14PM 42.0750 -102.6675 68° East 454 522 37,000  Level Denver Center
07:15PM 42.1189 -102.5169 69° East 454 522 37,000  Level Denver Center
07:16PM 42.1719 -102.3411 68° East 454 522 37,000  Level Denver Center
07:18PM 42.2181 -102.1867 68° East 453 521 37,000  Level Denver Center
07:19PM 42.2625 -102.0336 69° East 456 525 37,000  Level Denver Center
07:20PM 42.3133 -101.8608 68° East 455 524 37,000  Level Denver Center
07:21PM 42.3597 -101.7022 68° East 458 527 37,000  Level Denver Center
07:22PM 42.4039 -101.5481 69° East 459 528 37,000  Level Denver Center
07:23PM 42.4550 -101.3683 69° East 458 527 37,000  Level Denver Center
07:24PM 42.5000 -101.2119 69° East 463 533 37,000  Level Denver Center
07:25PM 42.5514 -101.0303 69° East 462 532 37,000  Level Denver Center
07:26PM 42.5956 -100.8744 69° East 462 532 37,000  Level Denver Center
07:27PM 42.6394 -100.7161 69° East 465 535 37,000  Level Denver Center
07:28PM 42.6900 -100.5311 70° East 467 537 37,000  Level Denver Center
07:29PM 42.7339 -100.3719 69° East 469 540 37,000  Level Denver Center
07:30PM 42.7786 -100.2075 70° East 467 537 37,000  Level Denver Center
07:31PM 42.8233 -100.0453 69° East 460 529 37,000  Level Denver Center
07:32PM 42.8764 -99.8483 70° East 462 532 37,000  Level Denver Center
07:33PM 42.9033 -99.7497 70° East 463 533 37,000  Level Minneapolis Center
07:34PM 42.9531 -99.5639 70° East 463 533 37,000 180 Level Minneapolis Center
07:35PM 42.9967 -99.3969 70° East 466 536 37,400 540 Climbing Minneapolis Center
07:36PM 43.0414 -99.2250 70° East 475 547 38,200 600 Climbing Minneapolis Center
07:37PM 43.0872 -99.0531 70° East 480 552 38,700 360 Climbing Minneapolis Center
07:38PM 43.1358 -98.8631 71° East 491 565 39,000 120 Climbing Minneapolis Center
07:39PM 43.1808 -98.6889 70° East 490 564 39,000  Level Minneapolis Center
07:40PM 43.2233 -98.5181 71° East 479 551 39,000  Level Minneapolis Center
07:41PM 43.2589 -98.3825 70° East 475 547 39,000  Level Minneapolis Center
07:42PM 43.3106 -98.1750 71° East 479 551 39,000  Level Minneapolis Center
07:43PM 43.3528 -98.0031 71° East 479 551 39,000  Level Minneapolis Center
07:44PM 43.4039 -97.7956 71° East 479 551 39,000  Level Minneapolis Center
07:45PM 43.4472 -97.6233 71° East 478 550 39,000  Level Minneapolis Center
07:46PM 43.4897 -97.4517 71° East 478 550 39,000  Level Minneapolis Center
07:47PM 43.5400 -97.2406 72° East 483 556 39,000  Level Minneapolis Center
07:48PM 43.5822 -97.0647 72° East 485 558 39,000  Level Minneapolis Center
07:49PM 43.6219 -96.8903 72° East 483 556 39,000  Level Minneapolis Center
07:50PM 43.6394 -96.7194 82° East 462 532 39,000  Level Minneapolis Center
07:51PM 43.6253 -96.5194 96° East 447 514 39,000  Level Minneapolis Center
07:52PM 43.6517 -96.3428 78° East 472 543 39,000  Level Minneapolis Center
07:53PM 43.6756 -96.1639 79° East 477 549 39,000  Level Minneapolis Center
07:54PM 43.7014 -95.9839 79° East 481 554 39,000  Level Minneapolis Center
07:55PM 43.7253 -95.8033 80° East 482 555 39,000  Level Minneapolis Center
07:56PM 43.7392 -95.6222 84° East 478 550 39,000  Level Minneapolis Center
07:57PM 43.7483 -95.4419 86° East 475 547 39,000  Level Minneapolis Center
07:58PM 43.7589 -95.2272 86° East 470 541 39,000  Level Minneapolis Center
07:59PM 43.7697 -95.0431 85° East 480 552 39,000  Level Minneapolis Center
08:01PM 43.7800 -94.8550 86° East 491 565 39,000  Level Minneapolis Center
08:02PM 43.7767 -94.6697 91° East 486 559 39,000  Level Minneapolis Center
08:03PM 43.7689 -94.4836 93° East 486 559 39,000  Level Minneapolis Center
08:04PM 43.7631 -94.2969 92° East 488 562 39,000  Level Minneapolis Center
08:05PM 43.7564 -94.0856 92° East 489 563 39,000  Level Minneapolis Center
08:06PM 43.7475 -93.8994 94° East 489 563 39,000  Level Minneapolis Center
08:07PM 43.7361 -93.7136 95° East 489 563 39,000  Level Minneapolis Center
08:08PM 43.7258 -93.5292 94° East 486 559 39,000  Level Minneapolis Center
08:09PM 43.6694 -93.3706 116° Southeast 464 534 39,000  Level Minneapolis Center
08:10PM 43.6006 -93.2228 123° Southeast 460 529 39,000  Level Minneapolis Center
08:11PM 43.5297 -93.0667 122° Southeast 464 534 39,000  Level Minneapolis Center
08:12PM 43.4606 -92.9197 123° Southeast 461 531 39,000  Level Minneapolis Center
08:13PM 43.3792 -92.7411 122° Southeast 463 533 39,000 -180 Level Minneapolis Center
08:14PM 43.3100 -92.5928 123° Southeast 464 534 38,700 -660 Descending Minneapolis Center
08:15PM 43.2403 -92.4447 123° Southeast 463 533 37,700 -840 Descending Minneapolis Center
08:16PM 43.1706 -92.2989 123° Southeast 461 531 37,000 -360 Descending Minneapolis Center
08:17PM 43.1011 -92.1506 123° Southeast 464 534 37,000  Level Minneapolis Center
08:18PM 43.0314 -92.0050 123° Southeast 461 531 37,000  Level Minneapolis Center
08:19PM 42.9614 -91.8569 123° Southeast 464 534 37,000 -360 Level Minneapolis Center
08:20PM 42.8764 -91.6781 123° Southeast 468 539 36,300 -780 Descending Minneapolis Center
08:21PM 42.8158 -91.5553 124° Southeast 468 539 35,500 -900 Descending Minneapolis Center
08:22PM 42.7425 -91.4039 123° Southeast 468 539 34,500 -1,020 Descending Minneapolis Center
08:22PM 42.6997 -91.3144 123° Southeast 471 542 34,000 -960 Descending Chicago Center
08:24PM 42.6242 -91.1606 124° Southeast 488 562 33,100 -960 Descending Chicago Center
08:25PM 42.5472 -91.0042 124° Southeast 499 574 32,100 -1,020 Descending Chicago Center
08:26PM 42.4519 -90.8878 138° Southeast 466 536 31,100 -1,020 Descending Chicago Center
08:27PM 42.3094 -90.8097 158° South 462 532 30,100 -1,020 Descending Chicago Center
08:28PM 42.1892 -90.7439 158° South 467 537 29,100 -1,020 Descending Chicago Center
08:29PM 42.0708 -90.6786 158° South 462 532 28,100 -1,080 Descending Chicago Center
08:30PM 41.9544 -90.6178 159° South 452 520 27,000 -1,020 Descending Chicago Center
08:31PM 41.8397 -90.5544 158° South 448 516 26,000 -1,080 Descending Chicago Center
08:32PM 41.7086 -90.4778 156° South 449 517 24,800 -1,080 Descending Chicago Center
08:33PM 41.6256 -90.3475 130° Southeast 455 524 23,800 -900 Descending Chicago Center
08:34PM 41.5458 -90.2164 129° Southeast 453 521 23,000 -1,200 Descending Chicago Center
08:35PM 41.4672 -90.0869 129° Southeast 449 517 21,400 -1,920 Descending Chicago Center
08:36PM 41.3914 -89.9636 129° Southeast 432 497 19,100 -1,800 Descending Chicago Center
08:37PM 41.3644 -89.8192 104° East 425 489 17,800 -1,140 Descending Chicago Center
08:38PM 41.3856 -89.6614 80° East 430 495 16,800 -1,080 Descending Chicago Center
08:39PM 41.4089 -89.4775 80° East 418 481 15,600 -1,080 Descending Chicago Center
08:40PM 41.4272 -89.3289 81° East 407 468 14,600 -1,140 Descending Chicago Center
08:41PM 41.4453 -89.1719 81° East 396 456 13,300 -1,860 Descending Chicago Center
08:42PM 41.4625 -89.0300 81° East 393 452 10,900 -1,560 Descending Chicago Center
08:43PM 41.4775 -88.9028 81° East 355 409 10,100 -1,260 Descending Chicago Center
08:44PM 41.4925 -88.7864 80° East 321 369 8,400 -1,440 Descending Chicago Center
08:45PM 41.5056 -88.6733 81° East 312 359 7,200 -1,260 Descending Chicago Center
08:46PM 41.5214 -88.5667 79° East 301 346 5,800 -1,080 Descending Chicago Center
08:47PM 41.5400 -88.4400 79° East 293 337 5,000 -900 Descending Chicago Center
08:48PM 41.5558 -88.3367 78° East 286 329 4,000 -540 Descending Chicago Center
08:49PM 41.5706 -88.2361 79° East 280 322 4,000  Level Chicago Center
08:50PM 41.5864 -88.1344 78° East 278 320 4,000  Level Chicago Center
08:51PM 41.6006 -88.0319 79° East 278 320 4,000  Level Chicago Center
08:52PM 41.6344 -87.9425 63° Northeast 278 320 4,000 -420 Level Chicago Center
08:53PM 41.6858 -87.8769 44° Northeast 265 305 3,200 -1,080 Descending Chicago Center
08:54PM 41.7167 -87.8333 47° Northeast 200 230 2,200 -1,080 Descending Chicago TRACON
08:55PM 41.7500 -87.8000 37° Northeast 137 158 1,400 -840 Descending Chicago TRACON